createdAt,value
2023-02-24T00:02:43.644Z,4.00
2023-02-24T00:07:46.792Z,3.23
2023-02-24T00:12:51.197Z,3.93
2023-02-24T00:17:54.234Z,3.53
2023-02-24T00:22:57.828Z,4.33
2023-02-24T00:28:03.376Z,3.13
2023-02-24T00:33:07.215Z,3.10
2023-02-24T00:38:12.839Z,3.60
2023-02-24T00:43:17.277Z,3.33
2023-02-24T00:48:20.817Z,2.73
2023-02-24T00:53:24.221Z,3.23
2023-02-24T00:58:30.007Z,2.50
2023-02-24T01:03:36.900Z,2.97
2023-02-24T01:08:42.800Z,3.40
2023-02-24T01:13:47.271Z,2.77
2023-02-24T01:18:50.518Z,3.00
2023-02-24T01:23:53.781Z,2.70
2023-02-24T01:28:58.670Z,2.80
2023-02-24T01:34:06.126Z,3.37
2023-02-24T01:39:11.144Z,3.03
2023-02-24T01:44:47.807Z,2.90
2023-02-24T01:49:56.116Z,3.47
2023-02-24T01:55:05.893Z,3.03
2023-02-24T02:00:12.437Z,2.70
2023-02-24T02:05:21.212Z,4.00
2023-02-24T02:10:24.552Z,3.00
2023-02-24T02:15:33.605Z,2.97
2023-02-24T02:21:09.932Z,2.57
2023-02-24T02:26:32.749Z,3.00
2023-02-24T02:31:56.793Z,2.90
2023-02-24T02:37:08.315Z,2.87
2023-02-24T02:42:22.100Z,3.50
2023-02-24T02:47:32.934Z,3.27
2023-02-24T02:52:43.875Z,2.80
2023-02-24T02:57:52.753Z,2.77
2023-02-24T03:03:03.370Z,2.87
2023-02-24T03:08:15.526Z,2.83
2023-02-24T03:13:23.182Z,2.73
2023-02-24T03:18:30.738Z,3.27
2023-02-24T03:23:38.856Z,3.50
2023-02-24T03:28:50.199Z,4.30
2023-02-24T03:34:03.715Z,3.03
2023-02-24T03:39:11.956Z,3.00
2023-02-24T03:44:24.741Z,2.60
2023-02-24T03:49:28.304Z,2.47
2023-02-24T03:54:48.132Z,2.97
2023-02-24T03:59:59.047Z,3.27
2023-02-24T04:05:18.252Z,2.57
2023-02-24T04:10:40.687Z,2.37
2023-02-24T04:15:51.946Z,2.93
2023-02-24T04:20:57.276Z,2.70
2023-02-24T04:26:03.048Z,2.47
2023-02-24T04:31:16.922Z,2.50
2023-02-24T04:36:22.635Z,3.40
2023-02-24T04:41:29.692Z,4.07
2023-02-24T04:46:33.745Z,2.33
2023-02-24T04:51:38.365Z,2.30
2023-02-24T04:56:43.055Z,2.23
2023-02-24T05:01:46.871Z,2.10
2023-02-24T05:06:49.890Z,2.30
2023-02-24T05:11:54.344Z,2.70
2023-02-24T05:17:00.614Z,2.97
2023-02-24T05:22:04.784Z,2.10
2023-02-24T05:27:09.530Z,1.70
2023-02-24T05:32:17.680Z,1.80
2023-02-24T05:37:20.942Z,1.80
2023-02-24T05:42:25.511Z,2.10
2023-02-24T05:47:29.515Z,1.70
2023-02-24T05:52:35.385Z,1.73
2023-02-24T05:57:41.668Z,1.60
2023-02-24T06:02:49.832Z,1.57
2023-02-24T06:08:04.320Z,1.63
2023-02-24T06:13:12.470Z,1.90
2023-02-24T06:18:17.547Z,2.07
2023-02-24T06:23:20.758Z,1.30
2023-02-24T06:28:28.401Z,1.60
2023-02-24T06:33:31.482Z,1.23
2023-02-24T06:38:36.877Z,2.23
2023-02-24T06:43:43.439Z,1.50
2023-02-24T06:48:48.164Z,2.20
2023-02-24T06:53:52.511Z,1.80
2023-02-24T06:58:58.480Z,2.00
2023-02-24T07:04:19.032Z,1.50
2023-02-24T07:09:24.294Z,1.60
2023-02-24T07:14:31.005Z,1.90
2023-02-24T07:19:34.374Z,1.90
2023-02-24T07:24:40.761Z,2.00
2023-02-24T07:29:45.239Z,1.90
2023-02-24T07:34:48.335Z,2.00
2023-02-24T07:39:51.857Z,1.90
2023-02-24T07:44:56.495Z,1.50
2023-02-24T07:50:00.452Z,2.00
2023-02-24T07:55:03.517Z,1.90
2023-02-24T08:00:18.706Z,2.00
2023-02-24T08:05:22.477Z,1.90
2023-02-24T08:10:25.971Z,2.10
2023-02-24T08:15:34.354Z,1.67
2023-02-24T08:20:51.352Z,2.57
2023-02-24T08:25:54.743Z,1.93
2023-02-24T08:30:59.376Z,2.47
2023-02-24T08:36:02.880Z,2.13
2023-02-24T08:41:06.425Z,1.83
2023-02-24T08:46:19.376Z,2.57
2023-02-24T08:51:28.785Z,2.50
2023-02-24T08:56:34.931Z,2.20
2023-02-24T09:02:03.693Z,1.87
2023-02-24T09:07:15.479Z,2.60
2023-02-24T09:12:24.822Z,2.00
2023-02-24T09:17:50.419Z,2.37
2023-02-24T09:23:00.811Z,2.23
2023-02-24T09:28:08.415Z,2.83
2023-02-24T09:33:21.330Z,2.60
2023-02-24T09:38:46.400Z,2.50
2023-02-24T09:43:56.435Z,2.63
2023-02-24T09:49:08.211Z,2.87
2023-02-24T09:54:17.800Z,2.30
2023-02-24T09:59:28.932Z,2.97
2023-02-24T10:05:07.468Z,3.17
2023-02-24T10:10:28.262Z,2.43
2023-02-24T10:15:48.851Z,2.10
2023-02-24T10:20:56.967Z,2.53
2023-02-24T10:26:07.010Z,2.60
2023-02-24T10:31:25.262Z,3.30
2023-02-24T10:36:35.799Z,2.67
2023-02-24T10:41:47.082Z,2.90
2023-02-24T10:47:12.146Z,2.90
2023-02-24T10:52:36.670Z,3.90
2023-02-24T10:57:58.550Z,2.80
2023-02-24T11:03:22.133Z,4.50
2023-02-24T11:08:54.433Z,4.63
2023-02-24T11:14:17.502Z,3.27
2023-02-24T11:19:21.440Z,3.40
2023-02-24T11:24:26.452Z,3.20
2023-02-24T11:29:44.347Z,2.97
2023-02-24T11:34:58.082Z,3.03
2023-02-24T11:40:08.230Z,3.70
2023-02-24T11:45:23.382Z,3.03
2023-02-24T11:50:43.748Z,3.60
2023-02-24T11:55:54.463Z,3.67
2023-02-24T12:01:05.010Z,4.10
2023-02-24T12:06:17.910Z,4.20
2023-02-24T12:11:34.053Z,3.70
2023-02-24T12:16:42.032Z,4.40
2023-02-24T12:21:50.332Z,4.53
2023-02-24T12:27:06.543Z,5.10
2023-02-24T12:32:22.567Z,4.80
2023-02-24T12:37:42.429Z,4.13
2023-02-24T12:42:58.653Z,4.30
2023-02-24T12:48:12.425Z,3.77
2023-02-24T12:53:21.963Z,4.30
2023-02-24T12:58:29.963Z,4.90
2023-02-24T13:03:45.894Z,4.67
2023-02-24T13:08:59.883Z,4.97
2023-02-24T13:14:13.473Z,4.17
2023-02-24T13:19:24.820Z,5.27
2023-02-24T13:24:27.986Z,4.60
2023-02-24T13:29:44.718Z,5.40
2023-02-24T13:34:47.838Z,4.00
2023-02-24T13:39:53.507Z,4.50
2023-02-24T13:45:06.148Z,3.37
2023-02-24T13:50:20.822Z,3.97
2023-02-24T13:55:41.286Z,4.57
2023-02-24T14:01:03.849Z,4.43
2023-02-24T14:06:08.241Z,5.07
2023-02-24T14:11:15.588Z,3.40
2023-02-24T14:16:24.196Z,2.67
2023-02-24T14:21:29.411Z,2.63
2023-02-24T14:26:39.258Z,2.80
2023-02-24T14:31:53.397Z,3.67
2023-02-24T14:36:59.282Z,4.23
2023-02-24T14:42:15.304Z,4.33
2023-02-24T14:47:24.622Z,4.43
2023-02-24T14:52:36.906Z,3.57
2023-02-24T14:57:46.319Z,3.40
2023-02-24T15:03:02.321Z,3.30
2023-02-24T15:08:05.715Z,4.07
2023-02-24T15:13:13.930Z,2.80
2023-02-24T15:18:25.812Z,3.60
2023-02-24T15:23:33.806Z,3.50
2023-02-24T15:28:38.958Z,2.77
2023-02-24T15:33:46.283Z,2.37
2023-02-24T15:38:53.991Z,2.27
2023-02-24T15:43:57.384Z,2.30
2023-02-24T15:49:03.388Z,3.67
2023-02-24T15:54:09.601Z,2.63
2023-02-24T15:59:15.381Z,2.10
2023-02-24T16:04:22.042Z,2.00
2023-02-24T16:09:32.246Z,1.97
2023-02-24T16:14:36.106Z,1.60
2023-02-24T16:19:40.640Z,2.40
2023-02-24T16:24:44.507Z,1.80
2023-02-24T16:29:49.862Z,1.87
2023-02-24T16:34:54.520Z,2.43
2023-02-24T16:39:59.788Z,1.53
2023-02-24T16:45:02.871Z,1.90
2023-02-24T16:50:07.978Z,1.50
2023-02-24T16:55:16.049Z,1.57
2023-02-24T17:00:23.898Z,1.50
2023-02-24T17:05:29.401Z,1.30
2023-02-24T17:10:36.054Z,1.60
2023-02-24T17:15:40.346Z,1.90
2023-02-24T17:20:44.988Z,3.07
2023-02-24T17:25:51.570Z,2.63
2023-02-24T17:30:58.671Z,2.87
2023-02-24T17:36:03.823Z,2.43
2023-02-24T17:41:07.468Z,3.00
2023-02-24T17:46:13.242Z,2.77
2023-02-24T17:51:19.564Z,3.23
2023-02-24T17:56:23.410Z,3.17
2023-02-24T18:01:27.198Z,2.50
2023-02-24T18:06:32.465Z,2.30
2023-02-24T18:11:36.842Z,2.67
2023-02-24T18:16:40.045Z,2.10
2023-02-24T18:21:44.529Z,2.53
2023-02-24T18:26:47.797Z,2.50
2023-02-24T18:31:51.371Z,2.43
2023-02-24T18:36:58.248Z,2.90
2023-02-24T18:42:01.773Z,2.20
2023-02-24T18:47:09.844Z,2.47
2023-02-24T18:52:20.296Z,2.00
2023-02-24T18:57:24.629Z,2.03
2023-02-24T19:02:28.067Z,2.07
2023-02-24T19:07:33.745Z,2.43
2023-02-24T19:12:37.272Z,2.47
2023-02-24T19:17:40.377Z,2.50
2023-02-24T19:22:45.246Z,2.67
2023-02-24T19:27:49.105Z,2.70
2023-02-24T19:32:52.296Z,3.23
2023-02-24T19:37:56.851Z,2.63
2023-02-24T19:43:00.150Z,3.33
2023-02-24T19:48:03.345Z,2.87
2023-02-24T19:53:09.949Z,3.57
2023-02-24T19:58:16.434Z,3.13
2023-02-24T20:03:21.556Z,2.83
2023-02-24T20:08:26.246Z,2.77
2023-02-24T20:13:29.603Z,3.90
2023-02-24T20:18:32.658Z,3.20
2023-02-24T20:23:37.792Z,3.60
2023-02-24T20:28:41.442Z,2.87
2023-02-24T20:33:45.165Z,2.60
2023-02-24T20:38:50.414Z,3.10
2023-02-24T20:43:54.705Z,3.00
2023-02-24T20:48:59.745Z,3.27
2023-02-24T20:54:05.506Z,3.83
2023-02-24T20:59:14.247Z,3.20
2023-02-24T21:04:19.997Z,2.80
2023-02-24T21:09:24.707Z,3.60
2023-02-24T21:14:27.981Z,2.93
2023-02-24T21:19:34.323Z,2.97
2023-02-24T21:24:38.814Z,4.07
2023-02-24T21:29:42.190Z,3.00
2023-02-24T21:34:45.653Z,3.80
2023-02-24T21:39:50.480Z,3.50
2023-02-24T21:45:02.379Z,3.13
2023-02-24T21:50:11.997Z,3.80
2023-02-24T21:55:17.524Z,3.43
2023-02-24T22:00:22.572Z,3.17
2023-02-24T22:05:27.401Z,3.50
2023-02-24T22:10:32.166Z,2.67
2023-02-24T22:15:35.392Z,3.07
2023-02-24T22:20:39.538Z,3.77
2023-02-24T22:25:44.298Z,2.80
2023-02-24T22:30:55.293Z,3.20
2023-02-24T22:36:05.726Z,2.40
2023-02-24T22:41:16.550Z,1.80
2023-02-24T22:46:22.722Z,1.90
2023-02-24T22:51:26.712Z,3.43
2023-02-24T22:56:32.317Z,1.90
2023-02-24T23:01:37.410Z,2.03
2023-02-24T23:06:40.565Z,2.03
2023-02-24T23:11:45.303Z,1.90
2023-02-24T23:16:53.873Z,2.20
2023-02-24T23:21:57.549Z,1.90
2023-02-24T23:27:02.188Z,2.07
2023-02-24T23:32:05.536Z,2.47
2023-02-24T23:37:12.074Z,2.47
2023-02-24T23:42:18.881Z,2.53
2023-02-24T23:47:21.964Z,2.70
2023-02-24T23:52:25.187Z,2.37
2023-02-24T23:57:29.705Z,2.80
